PDT,Max TemperatureF,Mean TemperatureF,Min TemperatureF,Max Dew PointF,MeanDew PointF,Min DewpointF,Max Humidity, Mean Humidity, Min Humidity, Max Sea Level PressureIn, Mean Sea Level PressureIn, Min Sea Level PressureIn, Max VisibilityMiles, Mean VisibilityMiles, Min VisibilityMiles, Max Wind SpeedMPH, Mean Wind SpeedMPH, Max Gust SpeedMPH,PrecipitationIn, CloudCover, Events, WindDirDegrees
2013-3-1,64,53,42,45,43,39,90,69,48,30.41,30.35,30.28,10,10,9,16,7,20,0.00,0,,228
2013-3-2,57,48,39,46,42,38,93,75,60,30.27,30.12,30.03,10,10,10,18,4,25,0.00,3,Rain,224
2013-3-3,54,44,30,36,24,15,67,48,25,30.25,30.17,30.06,10,10,10,20,13,26,0.00,2,,257
2013-3-4,53,36,19,27,22,16,88,59,31,30.31,30.19,30.01,10,10,2,14,4,,0.00,0,,58
2013-3-5,50,38,25,37,28,20,89,69,44,30.00,29.90,29.77,10,10,10,9,4,,0.01,5,Rain,42
2013-3-6,48,42,37,40,37,35,97,85,74,29.93,29.71,29.59,10,10,4,15,7,24,0.24,7,Rain,235
2013-3-7,55,44,30,33,30,27,92,66,38,30.07,30.03,29.95,10,10,10,8,5,,0.00,1,,224
2013-3-8,55,40,26,35,30,24,96,73,43,30.18,30.08,30.04,10,10,10,7,3,,0.00,0,,155
2013-3-9,59,42,25,34,29,22,92,66,35,30.42,30.34,30.20,10,10,8,8,3,,0.00,0,,174
2013-3-10,59,43,27,43,33,22,82,65,25,30.43,30.35,30.28,10,10,9,18,4,25,0.06,4,Rain,219
2013-3-11,57,50,44,43,40,34,82,69,41,30.35,30.29,30.21,10,10,10,14,7,,0.00,4,Rain,212
2013-3-12,64,53,43,45,42,39,86,68,48,30.19,30.13,30.09,10,10,10,13,7,,0.00,2,,227
2013-3-13,68,58,46,44,41,40,80,59,39,30.19,30.14,30.09,10,10,10,13,9,,0.00,1,,202
2013-3-14,66,54,42,48,42,35,89,66,41,30.14,30.05,29.99,10,10,10,14,4,22,0.00,1,,232
2013-3-15,64,54,43,44,41,38,86,62,41,30.19,30.14,30.09,10,10,10,16,8,21,0.00,0,,232
2013-3-16,59,48,37,40,37,30,89,63,39,30.08,29.97,29.84,10,10,10,21,10,26,0.00,4,Rain,247
2013-3-17,52,44,37,30,27,24,70,54,35,30.16,30.10,29.97,10,10,10,30,23,43,0.00,1,,245
2013-3-18,55,45,33,29,27,26,78,54,33,30.23,30.15,30.09,10,10,10,28,16,39,0.00,1,,235
2013-3-19,55,40,26,36,27,22,88,61,33,30.23,30.06,29.77,10,10,10,14,5,,0.01,3,Rain,49
2013-3-20,57,46,36,42,36,29,93,74,37,30.01,29.72,29.55,10,8,2,31,10,41,0.11,5,Rain,258
2013-3-21,52,44,35,29,26,23,68,53,36,30.15,30.10,30.02,10,10,10,28,18,38,0.00,3,,240
2013-3-22,51,40,30,28,24,19,76,56,31,30.32,30.22,30.14,10,10,10,16,11,22,0.00,3,,252
2013-3-23,50,34,19,28,23,17,89,64,33,30.40,30.34,30.28,10,10,10,8,3,,0.00,0,,292
2013-3-24,53,34,17,28,21,14,88,60,31,30.34,30.26,30.17,10,10,10,8,4,,0.00,1,,80
2013-3-25,57,46,36,32,28,25,79,51,32,30.16,30.06,29.96,10,10,10,12,4,17,0.00,6,,49
2013-3-26,63,50,39,43,34,30,80,56,31,30.01,29.97,29.93,10,10,10,6,3,,0.01,6,Rain,165
2013-3-27,64,54,45,47,44,42,93,75,46,29.97,29.94,29.89,10,10,6,12,4,,0.13,4,Rain,60
2013-3-28,66,56,46,49,46,44,96,75,47,30.08,30.03,29.98,10,10,7,6,3,,0.00,5,,42
2013-3-29,69,57,45,47,44,40,93,69,40,30.21,30.16,30.09,10,10,9,8,2,,0.00,4,,127
2013-3-30,72,54,36,45,38,32,93,63,24,30.24,30.17,30.07,10,10,10,9,4,,0.00,0,,74
2013-3-31,73,52,30,43,38,29,96,64,30,30.06,29.99,29.88,10,10,4,10,3,,0.00,0,,121